createdAt,value
2019-03-26T00:01:50.112Z,32.70
2019-03-26T00:04:22.493Z,24.72
2019-03-26T00:06:54.683Z,24.07
2019-03-26T00:09:27.007Z,29.30
2019-03-26T00:11:59.219Z,25.27
2019-03-26T00:14:31.354Z,26.85
2019-03-26T00:17:03.402Z,26.75
2019-03-26T00:19:35.279Z,25.43
2019-03-26T00:22:07.267Z,25.70
2019-03-26T00:24:39.428Z,22.02
2019-03-26T00:27:11.503Z,22.82
2019-03-26T00:29:43.672Z,24.43
2019-03-26T00:32:15.819Z,18.92
2019-03-26T00:34:48.024Z,21.07
2019-03-26T00:37:20.267Z,20.68
2019-03-26T00:39:52.456Z,18.40
2019-03-26T00:42:24.754Z,19.40
2019-03-26T00:44:56.859Z,17.37
2019-03-26T00:47:29.322Z,15.95
2019-03-26T00:50:01.531Z,17.50
2019-03-26T00:52:34.891Z,17.30
2019-03-26T00:55:07.898Z,16.85
2019-03-26T00:57:40.017Z,16.62
2019-03-26T01:00:14.394Z,19.27
2019-03-26T01:02:46.676Z,16.95
2019-03-26T01:05:18.839Z,16.42
2019-03-26T01:07:51.186Z,15.45
2019-03-26T01:10:29.104Z,17.98
2019-03-26T01:13:01.179Z,21.40
2019-03-26T01:15:33.480Z,15.80
2019-03-26T01:18:05.904Z,17.05
2019-03-26T01:20:38.043Z,17.82
2019-03-26T01:23:10.331Z,21.17
2019-03-26T01:25:42.797Z,21.55
2019-03-26T01:28:14.963Z,21.30
2019-03-26T01:30:47.175Z,22.55
2019-03-26T01:33:19.528Z,20.20
2019-03-26T01:35:52.023Z,24.18
2019-03-26T01:38:24.233Z,22.37
2019-03-26T01:40:56.174Z,22.87
2019-03-26T01:43:28.584Z,22.27
2019-03-26T01:46:00.978Z,22.73
2019-03-26T01:48:32.920Z,24.55
2019-03-26T01:51:05.109Z,24.67
2019-03-26T01:53:37.443Z,21.95
2019-03-26T01:56:09.596Z,21.87
2019-03-26T01:58:41.656Z,21.45
2019-03-26T02:01:13.820Z,25.10
2019-03-26T02:03:45.951Z,20.92
2019-03-26T02:06:18.066Z,19.95
2019-03-26T02:08:51.194Z,20.60
2019-03-26T02:11:23.327Z,22.55
2019-03-26T02:13:55.228Z,22.95
2019-03-26T02:16:27.261Z,21.02
2019-03-26T02:18:59.215Z,21.45
2019-03-26T02:21:31.196Z,28.50
2019-03-26T02:24:03.354Z,20.55
2019-03-26T02:26:35.609Z,22.10
2019-03-26T02:29:07.658Z,19.85
2019-03-26T02:31:39.690Z,18.70
2019-03-26T02:34:11.792Z,17.95
2019-03-26T02:36:43.777Z,21.60
2019-03-26T02:39:15.792Z,19.15
2019-03-26T02:41:47.729Z,18.07
2019-03-26T02:44:19.757Z,23.30
2019-03-26T02:46:51.890Z,20.68
2019-03-26T02:49:24.178Z,19.15
2019-03-26T02:51:56.256Z,19.52
2019-03-26T02:54:28.207Z,20.65
2019-03-26T02:57:00.441Z,19.48
2019-03-26T02:59:32.311Z,19.17
2019-03-26T03:02:04.771Z,17.00
2019-03-26T03:04:36.826Z,23.80
2019-03-26T03:07:08.726Z,16.45
2019-03-26T03:09:40.861Z,19.77
2019-03-26T03:12:13.034Z,17.00
2019-03-26T03:14:45.386Z,14.03
2019-03-26T03:17:17.263Z,18.62
2019-03-26T03:19:49.127Z,17.90
2019-03-26T03:22:20.925Z,19.15
2019-03-26T03:24:52.883Z,15.95
2019-03-26T03:27:25.011Z,14.65
2019-03-26T03:29:56.784Z,15.03
2019-03-26T03:32:28.720Z,16.00
2019-03-26T03:35:00.959Z,16.42
2019-03-26T03:37:33.344Z,20.02
2019-03-26T03:40:06.023Z,14.95
2019-03-26T03:42:38.387Z,18.92
2019-03-26T03:45:11.674Z,16.73
